ENTO/TRF METAR and TAF weather

Enter ICAO airport designator
Station Type Date Time Source
ENTO METAR 2021/09/16 22:20 UTC NOAA

ENTO 162220Z AUTO 03007KT 350V080 9999 BKN021/// OVC034/// 10/06 Q1018


Station Type Date Time Source
ENTO Decoded METAR 2021/09/16 22:20 UTC NOAA

Torp, Norway (ENTO) 59-12N 010-16E 88M
Sep 16, 2021 - 06:20 PM EDT / 2021.09.16 2220 UTC
Wind: from the NNE (030 degrees) at 8 MPH (7 KT) (direction variable):0
Visibility: greater than 7 mile(s):0
Sky conditions: overcast
Temperature: 50 F (10 C)
Dew Point: 42 F (6 C)
Relative Humidity: 76%
Pressure (altimeter): 30.06 in. Hg (1018 hPa)
ob: ENTO 162220Z AUTO 03007KT 350V080 9999 BKN021/// OVC034/// 10/06 Q1018
cycle: 22

Station Type Date Time Source
ENTO TAF 2021/09/16 18:59 UTC NOAA

TAF ENTO 161700Z 1618/1718 04010KT 9999 BKN025

Example: see airport list